Terminal Aerodrome Forecast
Issued by NWS

Home | Current Version | Previous Version | Text Only | Print | Product List | Glossary On
Versions: 1 2 3 4 5 6 7 8 9 10 11 12 13 14 15 16
465
FTUS45 KRIW 041122
TAFCPR
TAF
KCPR 041122Z 0412/0512 22014G24KT P6SM SCT090
     FM041400 22022G32KT P6SM BKN100 OVC200
     FM051000 24014G20KT P6SM BKN070=

USA.gov is the U.S. government's official web portal to all federal, state and local government web resources and services.